sensor_id;sensor_type;location;lat;lon;timestamp;pressure;altitude;pressure_sealevel;temperature;humidity
13836;BME280;6988;52.614;13.500;2023-09-12T00:02:10;53802.47;;;-143.77;65.67
13836;BME280;6988;52.614;13.500;2023-09-12T00:07:02;53810.69;;;-143.77;66.37
13836;BME280;6988;52.614;13.500;2023-09-12T00:11:54;53808.63;;;-143.77;66.41
13836;BME280;6988;52.614;13.500;2023-09-12T00:16:47;53812.72;;;-143.77;66.41
13836;BME280;6988;52.614;13.500;2023-09-12T00:21:40;53800.41;;;-143.77;66.53
13836;BME280;6988;52.614;13.500;2023-09-12T00:26:32;53816.84;;;-143.77;66.64
13836;BME280;6988;52.614;13.500;2023-09-12T00:31:24;53790.16;;;-143.77;66.58
13836;BME280;6988;52.614;13.500;2023-09-12T00:36:16;53823.00;;;-143.77;66.56
13836;BME280;6988;52.614;13.500;2023-09-12T00:41:09;53806.56;;;-143.77;66.58
13836;BME280;6988;52.614;13.500;2023-09-12T00:46:01;53833.25;;;-143.77;66.70
13836;BME280;6988;52.614;13.500;2023-09-12T00:50:53;53810.69;;;-143.77;66.58
13836;BME280;6988;52.614;13.500;2023-09-12T00:55:50;53806.56;;;-143.77;66.92
13836;BME280;6988;52.614;13.500;2023-09-12T01:00:46;53806.56;;;-143.77;66.71
13836;BME280;6988;52.614;13.500;2023-09-12T01:05:38;53829.16;;;-143.77;66.76
13836;BME280;6988;52.614;13.500;2023-09-12T01:10:30;53831.19;;;-143.77;66.87
13836;BME280;6988;52.614;13.500;2023-09-12T01:15:22;53849.66;;;-143.77;66.84
13836;BME280;6988;52.614;13.500;2023-09-12T01:20:24;53831.19;;;-143.77;66.89
13836;BME280;6988;52.614;13.500;2023-09-12T01:26:01;53837.34;;;-143.77;66.80
13836;BME280;6988;52.614;13.500;2023-09-12T01:30:55;53808.63;;;-143.77;67.18
13836;BME280;6988;52.614;13.500;2023-09-12T01:35:47;53864.03;;;-143.77;67.22
13836;BME280;6988;52.614;13.500;2023-09-12T01:40:46;53839.41;;;-143.77;67.19
13836;BME280;6988;52.614;13.500;2023-09-12T01:45:40;53868.13;;;-143.77;67.25
13836;BME280;6988;52.614;13.500;2023-09-12T01:50:34;53851.72;;;-143.77;67.37
13836;BME280;6988;52.614;13.500;2023-09-12T01:55:27;53866.06;;;-143.77;67.38
13836;BME280;6988;52.614;13.500;2023-09-12T02:00:19;53880.44;;;-143.77;67.71
13836;BME280;6988;52.614;13.500;2023-09-12T02:05:16;53851.72;;;-143.77;68.00
13836;BME280;6988;52.614;13.500;2023-09-12T02:10:11;53861.97;;;-143.77;68.21
13836;BME280;6988;52.614;13.500;2023-09-12T02:15:04;53876.34;;;-143.77;68.50
13836;BME280;6988;52.614;13.500;2023-09-12T02:19:56;53857.88;;;-143.77;68.58
13836;BME280;6988;52.614;13.500;2023-09-12T02:24:48;53880.44;;;-143.77;68.96
13836;BME280;6988;52.614;13.500;2023-09-12T02:29:42;53864.03;;;-143.77;68.87
13836;BME280;6988;52.614;13.500;2023-09-12T02:34:34;53905.06;;;-143.77;68.72
13836;BME280;6988;52.614;13.500;2023-09-12T02:39:26;53907.09;;;-143.77;68.90
13836;BME280;6988;52.614;13.500;2023-09-12T02:44:18;53861.97;;;-143.77;69.60
13836;BME280;6988;52.614;13.500;2023-09-12T02:49:12;53911.22;;;-143.77;69.51
13836;BME280;6988;52.614;13.500;2023-09-12T02:54:04;53878.38;;;-143.77;69.45
13836;BME280;6988;52.614;13.500;2023-09-12T02:58:56;53894.78;;;-143.77;69.79
13836;BME280;6988;52.614;13.500;2023-09-12T03:03:49;53884.53;;;-143.77;69.74
13836;BME280;6988;52.614;13.500;2023-09-12T03:08:43;53911.22;;;-143.77;69.99
13836;BME280;6988;52.614;13.500;2023-09-12T03:13:36;53892.75;;;-143.77;70.25
13836;BME280;6988;52.614;13.500;2023-09-12T03:18:28;53886.59;;;-143.77;70.69
13836;BME280;6988;52.614;13.500;2023-09-12T03:23:20;53903.00;;;-143.77;71.44
13836;BME280;6988;52.614;13.500;2023-09-12T03:28:14;53931.72;;;-143.77;72.00
13836;BME280;6988;52.614;13.500;2023-09-12T03:33:06;53927.63;;;-143.77;72.53
13836;BME280;6988;52.614;13.500;2023-09-12T03:37:59;53898.91;;;-143.77;73.18
13836;BME280;6988;52.614;13.500;2023-09-12T03:42:51;53948.13;;;-143.77;73.56
13836;BME280;6988;52.614;13.500;2023-09-12T03:47:44;53939.94;;;-143.77;73.51
13836;BME280;6988;52.614;13.500;2023-09-12T03:52:39;53941.97;;;-143.77;73.79
13836;BME280;6988;52.614;13.500;2023-09-12T03:57:31;53939.94;;;-143.77;73.37
13836;BME280;6988;52.614;13.500;2023-09-12T04:02:23;53941.97;;;-143.77;73.25
13836;BME280;6988;52.614;13.500;2023-09-12T04:07:16;53933.78;;;-143.77;73.22
13836;BME280;6988;52.614;13.500;2023-09-12T04:12:08;53929.69;;;-143.77;72.90
13836;BME280;6988;52.614;13.500;2023-09-12T04:17:00;53958.41;;;-143.77;72.95
13836;BME280;6988;52.614;13.500;2023-09-12T04:21:52;53950.19;;;-143.77;73.23
13836;BME280;6988;52.614;13.500;2023-09-12T04:26:46;53919.41;;;-143.77;73.86
13836;BME280;6988;52.614;13.500;2023-09-12T04:31:37;53911.22;;;-143.77;74.30
13836;BME280;6988;52.614;13.500;2023-09-12T04:36:29;53964.56;;;-143.77;74.40
13836;BME280;6988;52.614;13.500;2023-09-12T04:41:21;53939.94;;;-143.77;74.19
13836;BME280;6988;52.614;13.500;2023-09-12T04:46:14;53950.19;;;-143.77;74.56
13836;BME280;6988;52.614;13.500;2023-09-12T04:51:06;53913.25;;;-143.77;74.47
13836;BME280;6988;52.614;13.500;2023-09-12T04:55:58;53921.47;;;-143.77;74.65
13836;BME280;6988;52.614;13.500;2023-09-12T05:00:50;53890.69;;;-143.77;75.13
13836;BME280;6988;52.614;13.500;2023-09-12T05:05:45;53905.06;;;-143.77;74.95
13836;BME280;6988;52.614;13.500;2023-09-12T05:10:38;53909.16;;;-143.77;74.62
13836;BME280;6988;52.614;13.500;2023-09-12T05:15:30;53917.38;;;-143.77;74.40
13836;BME280;6988;52.614;13.500;2023-09-12T05:20:22;53954.28;;;-143.77;74.52
13836;BME280;6988;52.614;13.500;2023-09-12T05:25:16;53925.56;;;-143.77;74.31
13836;BME280;6988;52.614;13.500;2023-09-12T05:30:09;53917.38;;;-143.77;73.96
13836;BME280;6988;52.614;13.500;2023-09-12T05:35:01;53929.69;;;-143.77;74.65
13836;BME280;6988;52.614;13.500;2023-09-12T05:39:53;53888.63;;;-143.77;74.48
13836;BME280;6988;52.614;13.500;2023-09-12T05:44:46;53894.78;;;-143.77;74.40
13836;BME280;6988;52.614;13.500;2023-09-12T05:49:39;53853.75;;;-143.77;74.42
13836;BME280;6988;52.614;13.500;2023-09-12T05:54:31;53892.75;;;-143.77;74.50
13836;BME280;6988;52.614;13.500;2023-09-12T05:59:23;53921.47;;;-143.77;74.69
13836;BME280;6988;52.614;13.500;2023-09-12T06:04:17;53892.75;;;-143.77;74.44
13836;BME280;6988;52.614;13.500;2023-09-12T06:09:09;53859.91;;;-143.77;74.51
13836;BME280;6988;52.614;13.500;2023-09-12T06:14:01;53874.28;;;-143.77;74.12
13836;BME280;6988;52.614;13.500;2023-09-12T06:18:53;53853.75;;;-143.77;74.25
13836;BME280;6988;52.614;13.500;2023-09-12T06:23:46;53784.00;;;-143.77;73.55
13836;BME280;6988;52.614;13.500;2023-09-12T06:28:38;53798.38;;;-143.77;72.44
13836;BME280;6988;52.614;13.500;2023-09-12T06:33:29;53779.91;;;-143.77;71.53
13836;BME280;6988;52.614;13.500;2023-09-12T06:38:22;53699.91;;;-143.77;70.76
13836;BME280;6988;52.614;13.500;2023-09-12T06:43:16;53710.16;;;-143.77;70.11
13836;BME280;6988;52.614;13.500;2023-09-12T06:48:07;53662.97;;;-143.77;67.37
13836;BME280;6988;52.614;13.500;2023-09-12T06:52:59;53654.75;;;-143.77;65.36
13836;BME280;6988;52.614;13.500;2023-09-12T06:57:51;53626.03;;;-143.77;65.20
13836;BME280;6988;52.614;13.500;2023-09-12T07:02:44;53617.84;;;-143.77;62.75
13836;BME280;6988;52.614;13.500;2023-09-12T07:07:36;53582.97;;;-143.77;62.40
13836;BME280;6988;52.614;13.500;2023-09-12T07:12:27;53550.13;;;-143.77;61.06
13836;BME280;6988;52.614;13.500;2023-09-12T07:17:19;53517.31;;;-143.77;59.11
13836;BME280;6988;52.614;13.500;2023-09-12T07:22:13;53515.25;;;-143.77;58.15
13836;BME280;6988;52.614;13.500;2023-09-12T07:27:04;53490.66;;;-143.77;57.45
13836;BME280;6988;52.614;13.500;2023-09-12T07:31:56;53441.41;;;-143.77;57.16
13836;BME280;6988;52.614;13.500;2023-09-12T07:36:48;53388.06;;;-143.77;55.73
13836;BME280;6988;52.614;13.500;2023-09-12T07:41:43;53347.06;;;-143.77;54.34
13836;BME280;6988;52.614;13.500;2023-09-12T07:46:35;53353.22;;;-143.77;53.39
13836;BME280;6988;52.614;13.500;2023-09-12T07:51:27;53330.63;;;-143.77;52.12
13836;BME280;6988;52.614;13.500;2023-09-12T07:56:19;53281.41;;;-143.77;51.89
13836;BME280;6988;52.614;13.500;2023-09-12T08:01:12;53265.00;;;-143.77;50.30
13836;BME280;6988;52.614;13.500;2023-09-12T08:06:04;53203.47;;;-143.77;48.68
13836;BME280;6988;52.614;13.500;2023-09-12T08:10:56;53182.94;;;-143.77;47.31
13836;BME280;6988;52.614;13.500;2023-09-12T08:15:47;53205.50;;;-143.77;46.47
13836;BME280;6988;52.614;13.500;2023-09-12T08:20:41;53141.91;;;-143.77;44.91
13836;BME280;6988;52.614;13.500;2023-09-12T08:25:33;53115.25;;;-143.77;45.82
13836;BME280;6988;52.614;13.500;2023-09-12T08:30:24;53055.78;;;-143.77;44.78
13836;BME280;6988;52.614;13.500;2023-09-12T08:35:18;53022.94;;;-143.77;44.36
13836;BME280;6988;52.614;13.500;2023-09-12T08:40:12;53014.75;;;-143.77;42.67
13836;BME280;6988;52.614;13.500;2023-09-12T08:45:05;52990.13;;;-143.77;43.27
13836;BME280;6988;52.614;13.500;2023-09-12T08:49:58;52957.31;;;-143.77;42.80
13836;BME280;6988;52.614;13.500;2023-09-12T08:54:50;52914.25;;;-143.77;40.31
13836;BME280;6988;52.614;13.500;2023-09-12T08:59:44;52922.44;;;-143.77;40.31
13836;BME280;6988;52.614;13.500;2023-09-12T09:04:39;52879.38;;;-143.77;40.60
13836;BME280;6988;52.614;13.500;2023-09-12T09:09:32;52826.03;;;-143.77;40.06
13836;BME280;6988;52.614;13.500;2023-09-12T09:14:24;52834.25;;;-143.77;40.34
13836;BME280;6988;52.614;13.500;2023-09-12T09:19:17;52813.75;;;-143.77;38.52
13836;BME280;6988;52.614;13.500;2023-09-12T09:24:13;52801.44;;;-143.77;39.24
13836;BME280;6988;52.614;13.500;2023-09-12T09:29:08;52756.31;;;-143.77;38.33
13836;BME280;6988;52.614;13.500;2023-09-12T09:34:00;52758.38;;;-143.77;38.15
13836;BME280;6988;52.614;13.500;2023-09-12T09:38:57;52754.25;;;-143.77;38.07
13836;BME280;6988;52.614;13.500;2023-09-12T09:43:50;52805.53;;;-143.77;38.31
13836;BME280;6988;52.614;13.500;2023-09-12T09:48:49;52737.84;;;-143.77;38.04
13836;BME280;6988;52.614;13.500;2023-09-12T09:53:41;52748.09;;;-143.77;37.90
13836;BME280;6988;52.614;13.500;2023-09-12T09:58:36;52723.50;;;-143.77;37.94
13836;BME280;6988;52.614;13.500;2023-09-12T10:03:27;52715.28;;;-143.77;38.17
13836;BME280;6988;52.614;13.500;2023-09-12T10:08:22;52719.38;;;-143.77;37.68
13836;BME280;6988;52.614;13.500;2023-09-12T10:13:16;52723.50;;;-143.77;37.27
13836;BME280;6988;52.614;13.500;2023-09-12T10:18:19;52700.94;;;-143.77;38.12
13836;BME280;6988;52.614;13.500;2023-09-12T10:23:22;52700.94;;;-143.77;37.87
13836;BME280;6988;52.614;13.500;2023-09-12T10:28:15;52698.88;;;-143.77;36.98
13836;BME280;6988;52.614;13.500;2023-09-12T10:33:07;52684.53;;;-143.77;37.61
13836;BME280;6988;52.614;13.500;2023-09-12T10:38:03;52629.16;;;-143.77;37.34
13836;BME280;6988;52.614;13.500;2023-09-12T10:42:59;52649.66;;;-143.77;36.82
13836;BME280;6988;52.614;13.500;2023-09-12T10:47:53;52633.25;;;-143.77;36.67
13836;BME280;6988;52.614;13.500;2023-09-12T10:52:45;52616.84;;;-143.77;36.68
13836;BME280;6988;52.614;13.500;2023-09-12T10:58:03;52594.28;;;-143.77;36.31
13836;BME280;6988;52.614;13.500;2023-09-12T11:02:55;52573.78;;;-143.77;35.83
13836;BME280;6988;52.614;13.500;2023-09-12T11:07:48;52612.75;;;-143.77;36.03
13836;BME280;6988;52.614;13.500;2023-09-12T11:12:42;52557.38;;;-143.77;35.64
13836;BME280;6988;52.614;13.500;2023-09-12T11:17:38;52596.34;;;-143.77;35.62
13836;BME280;6988;52.614;13.500;2023-09-12T11:22:31;52573.78;;;-143.77;35.38
13836;BME280;6988;52.614;13.500;2023-09-12T11:27:30;52569.66;;;-143.77;35.27
13836;BME280;6988;52.614;13.500;2023-09-12T11:32:31;52559.41;;;-143.77;34.90
13836;BME280;6988;52.614;13.500;2023-09-12T11:37:25;52600.44;;;-143.77;34.55
13836;BME280;6988;52.614;13.500;2023-09-12T11:42:17;52590.19;;;-143.77;35.38
13836;BME280;6988;52.614;13.500;2023-09-12T11:47:10;52579.94;;;-143.77;35.40
13836;BME280;6988;52.614;13.500;2023-09-12T11:52:09;52588.13;;;-143.77;35.17
13836;BME280;6988;52.614;13.500;2023-09-12T11:57:02;52606.59;;;-143.77;35.67
13836;BME280;6988;52.614;13.500;2023-09-12T12:01:55;52629.16;;;-143.77;36.45
13836;BME280;6988;52.614;13.500;2023-09-12T12:06:47;52707.09;;;-143.77;35.44
13836;BME280;6988;52.614;13.500;2023-09-12T12:11:40;52682.47;;;-143.77;36.27
13836;BME280;6988;52.614;13.500;2023-09-12T12:16:33;52674.28;;;-143.77;35.72
13836;BME280;6988;52.614;13.500;2023-09-12T12:21:25;52692.72;;;-143.77;36.04
13836;BME280;6988;52.614;13.500;2023-09-12T12:26:19;52744.00;;;-143.77;36.13
13836;BME280;6988;52.614;13.500;2023-09-12T12:31:12;52678.38;;;-143.77;35.91
13836;BME280;6988;52.614;13.500;2023-09-12T12:36:05;52690.69;;;-143.77;35.74
13836;BME280;6988;52.614;13.500;2023-09-12T12:40:58;52655.81;;;-143.77;34.99
13836;BME280;6988;52.614;13.500;2023-09-12T12:45:53;52684.53;;;-143.77;35.40
13836;BME280;6988;52.614;13.500;2023-09-12T12:50:47;52653.75;;;-143.77;35.33
13836;BME280;6988;52.614;13.500;2023-09-12T12:55:39;52682.47;;;-143.77;34.89
13836;BME280;6988;52.614;13.500;2023-09-12T13:00:31;52657.88;;;-143.77;34.82
13836;BME280;6988;52.614;13.500;2023-09-12T13:05:26;52682.47;;;-143.77;35.41
13836;BME280;6988;52.614;13.500;2023-09-12T13:10:20;52707.09;;;-143.77;33.75
13836;BME280;6988;52.614;13.500;2023-09-12T13:15:13;52748.09;;;-143.77;34.55
13836;BME280;6988;52.614;13.500;2023-09-12T13:20:07;52750.16;;;-143.77;35.55
13836;BME280;6988;52.614;13.500;2023-09-12T13:24:59;52715.28;;;-143.77;35.35
13836;BME280;6988;52.614;13.500;2023-09-12T13:29:52;52694.78;;;-143.77;35.01
13836;BME280;6988;52.614;13.500;2023-09-12T13:34:44;52694.78;;;-143.77;34.81
13836;BME280;6988;52.614;13.500;2023-09-12T13:39:36;52754.25;;;-143.77;34.80
13836;BME280;6988;52.614;13.500;2023-09-12T13:44:28;52813.75;;;-143.77;35.47
13836;BME280;6988;52.614;13.500;2023-09-12T13:49:21;52826.03;;;-143.77;36.13
13836;BME280;6988;52.614;13.500;2023-09-12T13:54:13;52842.44;;;-143.77;36.46
13836;BME280;6988;52.614;13.500;2023-09-12T13:59:05;52867.06;;;-143.77;36.74
13836;BME280;6988;52.614;13.500;2023-09-12T14:03:57;52858.88;;;-143.77;36.11
13836;BME280;6988;52.614;13.500;2023-09-12T14:08:51;52840.41;;;-143.77;36.41
13836;BME280;6988;52.614;13.500;2023-09-12T14:13:43;52817.84;;;-143.77;36.44
13836;BME280;6988;52.614;13.500;2023-09-12T14:18:35;52809.63;;;-143.77;35.57
13836;BME280;6988;52.614;13.500;2023-09-12T14:23:27;52797.34;;;-143.77;36.20
13836;BME280;6988;52.614;13.500;2023-09-12T14:28:20;52801.44;;;-143.77;37.05
13836;BME280;6988;52.614;13.500;2023-09-12T14:33:12;52797.34;;;-143.77;36.91
13836;BME280;6988;52.614;13.500;2023-09-12T14:38:04;52881.44;;;-143.77;37.18
13836;BME280;6988;52.614;13.500;2023-09-12T14:42:56;52860.91;;;-143.77;37.26
13836;BME280;6988;52.614;13.500;2023-09-12T14:47:49;52838.34;;;-143.77;37.47
13836;BME280;6988;52.614;13.500;2023-09-12T14:52:40;52850.66;;;-143.77;37.75
13836;BME280;6988;52.614;13.500;2023-09-12T14:57:32;52918.34;;;-143.77;38.69
13836;BME280;6988;52.614;13.500;2023-09-12T15:02:25;52951.16;;;-143.77;40.05
13836;BME280;6988;52.614;13.500;2023-09-12T15:07:23;52971.69;;;-143.77;40.20
13836;BME280;6988;52.614;13.500;2023-09-12T15:12:15;52992.19;;;-143.77;41.11
13836;BME280;6988;52.614;13.500;2023-09-12T15:17:07;53029.09;;;-143.77;41.81
13836;BME280;6988;52.614;13.500;2023-09-12T15:21:58;53063.97;;;-143.77;42.09
13836;BME280;6988;52.614;13.500;2023-09-12T15:26:51;53100.91;;;-143.77;42.86
13836;BME280;6988;52.614;13.500;2023-09-12T15:31:43;53117.31;;;-143.77;43.22
13836;BME280;6988;52.614;13.500;2023-09-12T15:36:43;53154.22;;;-143.77;43.72
13836;BME280;6988;52.614;13.500;2023-09-12T15:41:35;53164.50;;;-143.77;44.37
13836;BME280;6988;52.614;13.500;2023-09-12T15:46:28;53195.25;;;-143.77;44.97
13836;BME280;6988;52.614;13.500;2023-09-12T15:51:20;53211.66;;;-143.77;45.16
13836;BME280;6988;52.614;13.500;2023-09-12T15:56:12;53232.19;;;-143.77;45.78
13836;BME280;6988;52.614;13.500;2023-09-12T16:01:04;53221.91;;;-143.77;46.19
13836;BME280;6988;52.614;13.500;2023-09-12T16:05:57;53221.91;;;-143.77;46.59
13836;BME280;6988;52.614;13.500;2023-09-12T16:10:50;53207.56;;;-143.77;47.17
13836;BME280;6988;52.614;13.500;2023-09-12T16:15:42;53310.13;;;-143.77;47.53
13836;BME280;6988;52.614;13.500;2023-09-12T16:20:34;53228.06;;;-143.77;47.24
13836;BME280;6988;52.614;13.500;2023-09-12T16:25:27;53248.59;;;-143.77;47.63
13836;BME280;6988;52.614;13.500;2023-09-12T16:30:18;53271.16;;;-143.77;48.18
13836;BME280;6988;52.614;13.500;2023-09-12T16:35:10;53299.88;;;-143.77;48.24
13836;BME280;6988;52.614;13.500;2023-09-12T16:40:03;53285.50;;;-143.77;48.61
13836;BME280;6988;52.614;13.500;2023-09-12T16:44:57;53289.63;;;-143.77;48.67
13836;BME280;6988;52.614;13.500;2023-09-12T16:49:50;53306.03;;;-143.77;48.87
13836;BME280;6988;52.614;13.500;2023-09-12T16:54:41;53410.66;;;-143.77;49.54
13836;BME280;6988;52.614;13.500;2023-09-12T16:59:33;53314.22;;;-143.77;49.58
13836;BME280;6988;52.614;13.500;2023-09-12T17:04:26;53332.69;;;-143.77;50.45
13836;BME280;6988;52.614;13.500;2023-09-12T17:09:18;53334.75;;;-143.77;51.29
13836;BME280;6988;52.614;13.500;2023-09-12T17:14:10;53330.63;;;-143.77;51.09
13836;BME280;6988;52.614;13.500;2023-09-12T17:19:02;53363.47;;;-143.77;51.24
13836;BME280;6988;52.614;13.500;2023-09-12T17:23:55;53386.03;;;-143.77;51.88
13836;BME280;6988;52.614;13.500;2023-09-12T17:28:46;53416.78;;;-143.77;52.01
13836;BME280;6988;52.614;13.500;2023-09-12T17:33:38;53408.59;;;-143.77;52.71
13836;BME280;6988;52.614;13.500;2023-09-12T17:38:30;53400.38;;;-143.77;53.00
13836;BME280;6988;52.614;13.500;2023-09-12T17:43:23;53400.38;;;-143.77;53.05
13836;BME280;6988;52.614;13.500;2023-09-12T17:48:15;53414.75;;;-143.77;53.71
13836;BME280;6988;52.614;13.500;2023-09-12T17:53:07;53453.72;;;-143.77;53.97
13836;BME280;6988;52.614;13.500;2023-09-12T17:57:58;53474.25;;;-143.77;54.35
13836;BME280;6988;52.614;13.500;2023-09-12T18:02:52;53431.16;;;-143.77;54.76
13836;BME280;6988;52.614;13.500;2023-09-12T18:07:43;53461.94;;;-143.77;55.15
13836;BME280;6988;52.614;13.500;2023-09-12T18:12:35;53478.34;;;-143.77;55.25
13836;BME280;6988;52.614;13.500;2023-09-12T18:17:27;53476.28;;;-143.77;55.69
13836;BME280;6988;52.614;13.500;2023-09-12T18:22:20;53478.34;;;-143.77;55.79
13836;BME280;6988;52.614;13.500;2023-09-12T18:27:12;53496.81;;;-143.77;55.77
13836;BME280;6988;52.614;13.500;2023-09-12T18:32:04;53484.50;;;-143.77;56.12
13836;BME280;6988;52.614;13.500;2023-09-12T18:36:56;53484.50;;;-143.77;56.77
13836;BME280;6988;52.614;13.500;2023-09-12T18:41:49;53527.56;;;-143.77;56.83
13836;BME280;6988;52.614;13.500;2023-09-12T18:46:40;53492.69;;;-143.77;57.13
13836;BME280;6988;52.614;13.500;2023-09-12T18:51:32;53552.19;;;-143.77;57.30
13836;BME280;6988;52.614;13.500;2023-09-12T18:56:26;53531.69;;;-143.77;57.70
13836;BME280;6988;52.614;13.500;2023-09-12T19:01:19;53535.78;;;-143.77;57.94
13836;BME280;6988;52.614;13.500;2023-09-12T19:06:11;53527.56;;;-143.77;57.98
13836;BME280;6988;52.614;13.500;2023-09-12T19:11:03;53533.72;;;-143.77;58.46
13836;BME280;6988;52.614;13.500;2023-09-12T19:15:58;53535.78;;;-143.77;58.71
13836;BME280;6988;52.614;13.500;2023-09-12T19:20:51;53546.03;;;-143.77;59.12
13836;BME280;6988;52.614;13.500;2023-09-12T19:25:43;53644.50;;;-143.77;59.19
13836;BME280;6988;52.614;13.500;2023-09-12T19:30:38;53560.41;;;-143.77;59.64
13836;BME280;6988;52.614;13.500;2023-09-12T19:35:30;53568.59;;;-143.77;59.91
13836;BME280;6988;52.614;13.500;2023-09-12T19:40:23;53564.50;;;-143.77;59.99
13836;BME280;6988;52.614;13.500;2023-09-12T19:45:17;53576.81;;;-143.77;60.27
13836;BME280;6988;52.614;13.500;2023-09-12T19:50:09;53580.91;;;-143.77;60.22
13836;BME280;6988;52.614;13.500;2023-09-12T19:55:01;53585.00;;;-143.77;60.28
13836;BME280;6988;52.614;13.500;2023-09-12T19:59:54;53572.72;;;-143.77;60.33
13836;BME280;6988;52.614;13.500;2023-09-12T20:04:46;53601.44;;;-143.77;60.47
13836;BME280;6988;52.614;13.500;2023-09-12T20:09:38;53601.44;;;-143.77;60.57
13836;BME280;6988;52.614;13.500;2023-09-12T20:14:29;53601.44;;;-143.77;61.02
13836;BME280;6988;52.614;13.500;2023-09-12T20:19:23;53626.03;;;-143.77;61.35
13836;BME280;6988;52.614;13.500;2023-09-12T20:24:14;53613.72;;;-143.77;61.38
13836;BME280;6988;52.614;13.500;2023-09-12T20:29:06;53611.69;;;-143.77;61.32
13836;BME280;6988;52.614;13.500;2023-09-12T20:33:58;53613.72;;;-143.77;61.69
13836;BME280;6988;52.614;13.500;2023-09-12T20:39:20;53609.63;;;-143.77;62.20
13836;BME280;6988;52.614;13.500;2023-09-12T20:44:12;53613.72;;;-143.77;62.01
13836;BME280;6988;52.614;13.500;2023-09-12T20:49:04;53615.78;;;-143.77;62.51
13836;BME280;6988;52.614;13.500;2023-09-12T20:53:57;53646.56;;;-143.77;62.42
13836;BME280;6988;52.614;13.500;2023-09-12T20:58:54;53605.53;;;-143.77;62.51
13836;BME280;6988;52.614;13.500;2023-09-12T21:03:46;53660.91;;;-143.77;62.82
13836;BME280;6988;52.614;13.500;2023-09-12T21:08:39;53640.41;;;-143.77;62.95
13836;BME280;6988;52.614;13.500;2023-09-12T21:13:32;53634.25;;;-143.77;62.80
13836;BME280;6988;52.614;13.500;2023-09-12T21:18:24;53634.25;;;-143.77;63.33
13836;BME280;6988;52.614;13.500;2023-09-12T21:23:16;53605.53;;;-143.77;63.18
13836;BME280;6988;52.614;13.500;2023-09-12T21:28:08;53656.81;;;-143.77;63.68
13836;BME280;6988;52.614;13.500;2023-09-12T21:33:01;53626.03;;;-143.77;63.62
13836;BME280;6988;52.614;13.500;2023-09-12T21:37:52;53679.38;;;-143.77;63.49
13836;BME280;6988;52.614;13.500;2023-09-12T21:42:45;53650.66;;;-143.77;63.77
13836;BME280;6988;52.614;13.500;2023-09-12T22:05:14;53667.06;;;-143.77;64.38
13836;BME280;6988;52.614;13.500;2023-09-12T22:10:07;53662.97;;;-143.77;64.60
13836;BME280;6988;52.614;13.500;2023-09-12T22:14:59;53660.91;;;-143.77;64.88
13836;BME280;6988;52.614;13.500;2023-09-12T22:19:52;53679.38;;;-143.77;64.89
13836;BME280;6988;52.614;13.500;2023-09-12T22:24:45;53673.22;;;-143.77;64.67
13836;BME280;6988;52.614;13.500;2023-09-12T22:29:37;53675.28;;;-143.77;64.76
13836;BME280;6988;52.614;13.500;2023-09-12T22:34:29;53644.50;;;-143.77;64.83
13836;BME280;6988;52.614;13.500;2023-09-12T22:39:22;53706.06;;;-143.77;64.92
13836;BME280;6988;52.614;13.500;2023-09-12T22:44:15;53673.22;;;-143.77;64.98
13836;BME280;6988;52.614;13.500;2023-09-12T22:49:07;53704.00;;;-143.77;65.41
13836;BME280;6988;52.614;13.500;2023-09-12T22:58:53;53687.59;;;-143.77;65.77
13836;BME280;6988;52.614;13.500;2023-09-12T23:03:46;53730.66;;;-143.77;65.87
13836;BME280;6988;52.614;13.500;2023-09-12T23:08:38;53695.78;;;-143.77;66.24
13836;BME280;6988;52.614;13.500;2023-09-12T23:13:29;53730.66;;;-143.77;66.51
13836;BME280;6988;52.614;13.500;2023-09-12T23:18:21;53728.63;;;-143.77;66.32
13836;BME280;6988;52.614;13.500;2023-09-12T23:23:16;53706.06;;;-143.77;66.20
13836;BME280;6988;52.614;13.500;2023-09-12T23:28:08;53745.03;;;-143.77;66.42
13836;BME280;6988;52.614;13.500;2023-09-12T23:33:02;53740.94;;;-143.77;66.48
13836;BME280;6988;52.614;13.500;2023-09-12T23:37:54;53728.63;;;-143.77;66.87
13836;BME280;6988;52.614;13.500;2023-09-12T23:42:47;53718.34;;;-143.77;68.09
13836;BME280;6988;52.614;13.500;2023-09-12T23:47:39;53745.03;;;-143.77;68.36
13836;BME280;6988;52.614;13.500;2023-09-12T23:52:31;53757.34;;;-143.77;68.45
13836;BME280;6988;52.614;13.500;2023-09-12T23:57:23;53790.16;;;-143.77;68.54
